Pagina principale
METAR-TAF:

METAR-TAF

Aeroporti :

Ferrara, Italia

latitudine: 44-50N, longitudine: 011-37E, altezza: 10 m

Osservazione

Il bollettino è stato emesso 23 minuti fa, alle 11:55 UTC
Vento 7 kt da ovest/sud-ovest
Temperature 11°C
Umidità 76%
Pressione 1012 hPa
Visibilità: 6000 m

METAR: LIPF 191155Z 25007KT 6000 NSC 11/07 Q1012 RMK SKC VIS MIN 6000

Ora: 13:18 (12:18 UTC)


TAF: mancante

Osservazioni e previsioni meteorologiche di più di 4000 aeroporti (messaggi METAR e TAF).

Le stazioni disponibili sono rappresentate dai dischi gialli e rossi sulla carta.

Puntare il mouse per vedere il nome della stazione.

Clicca sopra per visualizzare le osservazioni e previsioni meteorologiche.

Per cambiare la mappa : fare clic sui pulsanti verdi con una croce nera per ingrandire, il pulsante verde con un trattino per diminuire, o sulla freccia verde per le mappe adiacenti.


METAR-TAF: